Szafir — 5BFC3 — position and weather

sailwx.info

Track history (hours):
 
Tides and Currents Weather Stations Pressure Air Temp Water Temp Dewpoint Dewpoint Depression Visibility Wind Speed Wind Dir Waves Ship Positions

Szafir

Last reported at 2017-Mar-26 12:13 UTC. Time now 2017-Mar-26 18:54 UTC.
Position N 39°21' W 009°51'.

Length 113 m; draft 7.3 m.

Type: Ship. MMSI: 209366000.

Date/timePositionNaut miles runAvg speedWind from/ knotsBaromVisibWave heightAir tempDewpointWater temp
2017-Mar-26 12:13N 39°21' W 009°51'913.5
2017-Mar-26 11:33N 39°12' W 009°51'1313.5
2017-Mar-26 10:33N 38°58' W 009°51'1313.4
2017-Mar-26 09:33N 38°45' W 009°51'1313.0
2017-Mar-26 08:33N 38°32' W 009°48'1312.9
2017-Mar-26 07:33N 38°20' W 009°44'  
2017-Mar-19 03:23N 09°19' W 015°58'3811.7
2017-Mar-19 00:11N 08°53' W 015°30'2612.2
2017-Mar-18 22:05N 08°36' W 015°11'812.1
2017-Mar-18 21:25N 08°30' W 015°05'1011.8
2017-Mar-18 20:34N 08°23' W 014°58'1211.8
2017-Mar-18 19:34N 08°15' W 014°49'1411.9
2017-Mar-18 18:22N 08°05' W 014°38'1111.7
2017-Mar-18 17:27N 07°58' W 014°31'1211.8
2017-Mar-18 16:28N 07°50' W 014°22'2611.6
2017-Mar-18 14:12N 07°33' W 014°02'711.3
2017-Mar-18 13:33N 07°29' W 013°56'  
Track history (hours):
 
Tides and Currents Weather Stations Pressure Air Temp Water Temp Dewpoint Dewpoint Depression Visibility Wind Speed Wind Dir Waves Ship Positions

Szafir

Last reported at 2017-Mar-26 12:13 UTC. Time now 2017-Mar-26 18:54 UTC.
Position N 39°21' W 009°51'.

Length 113 m; draft 7.3 m.

Type: Ship. MMSI: 209366000.

Date/timePositionNaut miles runAvg speedWind from/ knotsBaromVisibWave heightAir tempDewpointWater temp
2017-Mar-26 12:13N 39°21' W 009°51'913.5
2017-Mar-26 11:33N 39°12' W 009°51'1313.5
2017-Mar-26 10:33N 38°58' W 009°51'1313.4
2017-Mar-26 09:33N 38°45' W 009°51'1313.0
2017-Mar-26 08:33N 38°32' W 009°48'1312.9
2017-Mar-26 07:33N 38°20' W 009°44'  
2017-Mar-19 03:23N 09°19' W 015°58'3811.7
2017-Mar-19 00:11N 08°53' W 015°30'2612.2
2017-Mar-18 22:05N 08°36' W 015°11'812.1
2017-Mar-18 21:25N 08°30' W 015°05'1011.8
2017-Mar-18 20:34N 08°23' W 014°58'1211.8
2017-Mar-18 19:34N 08°15' W 014°49'1411.9
2017-Mar-18 18:22N 08°05' W 014°38'1111.7
2017-Mar-18 17:27N 07°58' W 014°31'1211.8
2017-Mar-18 16:28N 07°50' W 014°22'2611.6
2017-Mar-18 14:12N 07°33' W 014°02'711.3
2017-Mar-18 13:33N 07°29' W 013°56'  

Dump ship's entire track history